createdAt,value
2019-01-25T00:01:12.745Z,39.77
2019-01-25T00:03:46.415Z,38.37
2019-01-25T00:06:20.317Z,47.10
2019-01-25T00:08:54.204Z,45.27
2019-01-25T00:11:27.969Z,38.07
2019-01-25T00:14:01.730Z,45.10
2019-01-25T00:16:36.372Z,49.87
2019-01-25T00:19:10.191Z,38.13
2019-01-25T00:21:43.988Z,44.10
2019-01-25T00:24:17.765Z,46.63
2019-01-25T00:26:51.497Z,52.30
2019-01-25T00:29:26.133Z,42.33
2019-01-25T00:31:59.904Z,39.70
2019-01-25T00:34:33.651Z,40.77
2019-01-25T00:37:07.356Z,37.50
2019-01-25T00:39:41.068Z,42.63
2019-01-25T00:42:14.824Z,47.53
2019-01-25T00:44:48.692Z,38.57
2019-01-25T00:47:22.546Z,37.40
2019-01-25T00:49:56.310Z,41.53
2019-01-25T00:52:30.039Z,41.10
2019-01-25T00:55:03.825Z,36.33
2019-01-25T00:57:37.632Z,43.80
2019-01-25T01:00:28.073Z,39.47
2019-01-25T01:03:02.508Z,37.13
2019-01-25T01:05:36.201Z,41.80
2019-01-25T01:08:09.807Z,43.57
2019-01-25T01:10:44.325Z,41.63
2019-01-25T01:13:18.147Z,36.70
2019-01-25T01:15:52.049Z,46.33
2019-01-25T01:18:25.791Z,40.30
2019-01-25T01:20:59.456Z,41.47
2019-01-25T01:23:33.297Z,36.57
2019-01-25T01:26:11.328Z,38.87
2019-01-25T01:28:44.965Z,45.63
2019-01-25T01:31:18.796Z,46.50
2019-01-25T01:33:52.519Z,38.30
2019-01-25T01:36:26.257Z,41.13
2019-01-25T01:39:00.034Z,37.13
2019-01-25T01:41:33.896Z,34.83
2019-01-25T01:44:07.632Z,35.63
2019-01-25T01:46:41.282Z,46.37
2019-01-25T01:49:15.028Z,38.47
2019-01-25T01:51:48.820Z,37.50
2019-01-25T01:54:23.422Z,36.03
2019-01-25T01:56:57.190Z,42.07
2019-01-25T01:59:31.037Z,39.43
2019-01-25T02:02:04.758Z,37.93
2019-01-25T02:04:39.358Z,36.20
2019-01-25T02:07:13.109Z,41.23
2019-01-25T02:09:46.941Z,39.33
2019-01-25T02:12:20.709Z,38.83
2019-01-25T02:14:54.481Z,36.73
2019-01-25T02:17:28.369Z,32.10
2019-01-25T02:20:03.018Z,36.27
2019-01-25T02:22:36.805Z,33.80
2019-01-25T02:25:10.524Z,34.70
2019-01-25T02:27:44.220Z,40.13
2019-01-25T02:30:21.436Z,36.27
2019-01-25T02:32:55.945Z,35.87
2019-01-25T02:35:29.735Z,36.33
2019-01-25T02:38:03.477Z,39.97
2019-01-25T02:40:39.242Z,39.50
2019-01-25T02:43:10.990Z,35.17
2019-01-25T02:45:44.837Z,38.30
2019-01-25T02:48:18.597Z,42.60
2019-01-25T02:50:52.487Z,38.63
2019-01-25T02:53:26.212Z,35.60
2019-01-25T02:56:00.058Z,38.87
2019-01-25T02:58:33.831Z,36.10
2019-01-25T03:01:07.583Z,38.13
2019-01-25T03:03:42.057Z,40.10
2019-01-25T03:06:15.816Z,44.27
2019-01-25T03:08:49.446Z,37.60
2019-01-25T03:11:23.068Z,34.13
2019-01-25T03:13:56.954Z,40.77
2019-01-25T03:16:30.870Z,39.70
2019-01-25T03:19:04.571Z,42.83
2019-01-25T03:21:39.077Z,34.30
2019-01-25T03:24:12.861Z,36.83
2019-01-25T03:26:46.584Z,45.73
2019-01-25T03:29:20.349Z,38.37
2019-01-25T03:31:54.098Z,36.63
2019-01-25T03:34:27.757Z,49.77
2019-01-25T03:37:02.320Z,40.87
2019-01-25T03:39:36.870Z,38.30
2019-01-25T03:42:11.613Z,37.57
2019-01-25T03:44:45.393Z,42.83
2019-01-25T03:47:19.933Z,39.37
2019-01-25T03:49:53.610Z,44.77
2019-01-25T03:52:28.117Z,46.60
2019-01-25T03:55:01.930Z,39.60
2019-01-25T03:57:35.758Z,39.17
2019-01-25T04:00:11.927Z,37.53
2019-01-25T04:02:45.663Z,41.67
2019-01-25T04:05:19.440Z,40.83
2019-01-25T04:07:53.170Z,44.53
2019-01-25T04:10:26.976Z,37.20
2019-01-25T04:13:00.661Z,41.20
2019-01-25T04:15:35.132Z,42.17
2019-01-25T04:18:09.759Z,54.10
2019-01-25T04:20:43.429Z,39.50
2019-01-25T04:23:17.338Z,38.07
2019-01-25T04:25:51.955Z,40.33
2019-01-25T04:28:25.704Z,38.27
2019-01-25T04:30:59.370Z,41.07
2019-01-25T04:33:33.069Z,35.83
2019-01-25T04:36:06.861Z,34.63
2019-01-25T04:38:40.617Z,38.60
2019-01-25T04:41:14.262Z,33.70
2019-01-25T04:43:48.188Z,36.83
2019-01-25T04:46:22.700Z,37.83
2019-01-25T04:48:57.226Z,41.33
2019-01-25T04:51:31.033Z,44.00
2019-01-25T04:54:05.579Z,38.10
2019-01-25T04:56:39.365Z,41.93
2019-01-25T04:59:13.976Z,39.87
2019-01-25T05:01:47.689Z,43.80
2019-01-25T05:04:21.657Z,46.97
2019-01-25T05:06:55.573Z,43.50
2019-01-25T05:09:29.298Z,39.43
2019-01-25T05:12:03.020Z,44.93
2019-01-25T05:14:37.704Z,35.57
2019-01-25T05:17:11.342Z,39.70
2019-01-25T05:19:45.081Z,37.77
2019-01-25T05:22:19.039Z,44.63
2019-01-25T05:24:52.825Z,39.73
2019-01-25T05:27:26.636Z,39.63
2019-01-25T05:30:00.444Z,36.97
2019-01-25T05:32:34.261Z,38.97
2019-01-25T05:35:08.809Z,37.70
2019-01-25T05:37:42.472Z,38.10
2019-01-25T05:40:24.733Z,35.97
2019-01-25T05:42:59.209Z,45.00
2019-01-25T05:45:33.012Z,38.33
2019-01-25T05:48:06.722Z,42.27
2019-01-25T05:50:40.425Z,48.97
2019-01-25T05:53:14.160Z,41.03
2019-01-25T05:55:47.770Z,35.17
2019-01-25T05:58:21.544Z,38.73
2019-01-25T06:00:55.270Z,47.13
2019-01-25T06:03:29.846Z,31.47
2019-01-25T06:06:04.285Z,43.03
2019-01-25T06:08:43.782Z,45.53
2019-01-25T06:11:11.927Z,54.23
2019-01-25T06:13:45.922Z,45.80
2019-01-25T06:16:19.528Z,52.77
2019-01-25T06:18:53.281Z,41.63
2019-01-25T06:21:27.224Z,39.47
2019-01-25T06:24:01.877Z,43.90
2019-01-25T06:26:35.708Z,37.77
2019-01-25T06:29:09.408Z,40.33
2019-01-25T06:31:43.218Z,44.73
2019-01-25T06:34:17.188Z,44.63
2019-01-25T06:36:50.929Z,35.23
2019-01-25T06:39:24.900Z,45.70
2019-01-25T06:41:58.466Z,35.67
2019-01-25T06:44:32.954Z,39.60
2019-01-25T06:47:07.563Z,37.00
2019-01-25T06:49:42.048Z,37.87
2019-01-25T06:52:16.472Z,40.43
2019-01-25T06:54:50.296Z,40.97
2019-01-25T06:57:24.232Z,41.20
2019-01-25T06:59:57.954Z,34.27
2019-01-25T07:02:31.653Z,38.17
2019-01-25T07:05:05.501Z,50.00
2019-01-25T07:07:39.169Z,51.83
2019-01-25T07:10:15.313Z,37.87
2019-01-25T07:12:49.050Z,41.80
2019-01-25T07:15:22.743Z,42.60
2019-01-25T07:17:56.676Z,39.00
2019-01-25T07:20:30.388Z,48.80
2019-01-25T07:23:04.147Z,39.77
2019-01-25T07:25:38.628Z,50.03
2019-01-25T07:28:13.117Z,52.67
2019-01-25T07:30:47.018Z,49.40
2019-01-25T07:33:20.865Z,48.83
2019-01-25T07:35:54.578Z,43.93
2019-01-25T07:38:28.430Z,41.20
2019-01-25T07:41:03.024Z,47.43
2019-01-25T07:43:36.646Z,47.13
2019-01-25T07:46:10.497Z,52.90
2019-01-25T07:48:44.362Z,51.13
2019-01-25T07:51:18.076Z,46.67
2019-01-25T07:53:52.717Z,40.27
2019-01-25T07:56:27.297Z,45.60
2019-01-25T07:59:01.012Z,47.77
2019-01-25T08:01:34.777Z,47.23
2019-01-25T08:04:08.377Z,42.93
2019-01-25T08:06:42.301Z,47.20
2019-01-25T08:09:16.153Z,46.27
2019-01-25T08:11:49.889Z,44.70
2019-01-25T08:14:23.805Z,48.80
2019-01-25T08:16:57.542Z,48.10
2019-01-25T08:19:31.261Z,49.33
2019-01-25T08:22:05.924Z,48.83
2019-01-25T08:24:39.685Z,51.87
2019-01-25T08:27:13.555Z,47.43
2019-01-25T08:29:47.589Z,46.37
2019-01-25T08:32:21.509Z,45.47
2019-01-25T08:34:55.221Z,47.33
2019-01-25T08:37:29.142Z,47.60
2019-01-25T08:40:02.909Z,52.27
2019-01-25T08:42:36.670Z,43.47
2019-01-25T08:45:23.201Z,54.43
2019-01-25T08:47:56.980Z,57.07
2019-01-25T08:50:31.473Z,56.27
2019-01-25T08:53:05.991Z,58.83
2019-01-25T08:55:40.625Z,53.70
2019-01-25T08:58:14.425Z,53.80
2019-01-25T09:00:48.309Z,43.80
2019-01-25T09:03:21.955Z,56.50
2019-01-25T09:05:55.873Z,46.43
2019-01-25T09:08:29.490Z,52.50
2019-01-25T09:11:03.981Z,53.73
2019-01-25T09:13:37.755Z,51.10
2019-01-25T09:16:11.512Z,55.50
2019-01-25T09:18:45.378Z,50.93
2019-01-25T09:21:19.230Z,52.67
2019-01-25T09:23:53.594Z,49.43
2019-01-25T09:26:28.168Z,53.27
2019-01-25T09:29:02.753Z,50.53
2019-01-25T09:31:36.549Z,48.77
2019-01-25T09:34:10.381Z,47.20
2019-01-25T09:36:45.104Z,47.97
2019-01-25T09:39:18.916Z,53.27
2019-01-25T09:41:52.864Z,51.70
2019-01-25T09:44:26.488Z,47.97
2019-01-25T09:47:00.225Z,57.83
2019-01-25T09:49:33.844Z,59.57
2019-01-25T09:52:07.649Z,50.60
2019-01-25T09:54:41.421Z,46.47
2019-01-25T09:57:15.880Z,53.43
2019-01-25T09:59:49.641Z,51.50
2019-01-25T10:02:23.455Z,54.50
2019-01-25T10:04:57.334Z,50.73
2019-01-25T10:07:31.776Z,59.83
2019-01-25T10:10:05.604Z,55.90
2019-01-25T10:12:43.392Z,54.93
2019-01-25T10:15:15.327Z,57.53
2019-01-25T10:17:49.044Z,48.27
2019-01-25T10:20:22.758Z,55.07
2019-01-25T10:22:56.446Z,49.53
2019-01-25T10:25:30.404Z,56.50
2019-01-25T10:28:04.201Z,63.47
2019-01-25T10:30:37.991Z,49.83
2019-01-25T10:33:11.838Z,47.97
2019-01-25T10:35:45.609Z,62.00
2019-01-25T10:38:19.457Z,58.17
2019-01-25T10:40:53.917Z,55.20
2019-01-25T10:43:27.680Z,55.47
2019-01-25T10:46:01.567Z,58.60
2019-01-25T10:48:35.460Z,56.20
2019-01-25T10:51:09.164Z,57.17
2019-01-25T10:53:43.798Z,61.27
2019-01-25T10:56:17.532Z,53.37
2019-01-25T10:58:51.385Z,54.73
2019-01-25T11:01:25.900Z,53.57
2019-01-25T11:03:59.688Z,52.80
2019-01-25T11:06:34.345Z,55.37
2019-01-25T11:09:08.986Z,51.43
2019-01-25T11:11:42.693Z,56.27
2019-01-25T11:14:16.524Z,43.47
2019-01-25T11:16:51.122Z,52.67
2019-01-25T11:19:25.677Z,62.17
2019-01-25T11:21:59.449Z,48.73
2019-01-25T11:24:34.042Z,54.63
2019-01-25T11:27:07.678Z,59.67
2019-01-25T11:29:41.558Z,60.33
2019-01-25T11:32:15.267Z,59.87
2019-01-25T11:34:48.928Z,51.97
2019-01-25T11:37:22.784Z,48.33
2019-01-25T11:39:57.311Z,54.37
2019-01-25T11:42:31.092Z,52.80
2019-01-25T11:45:04.980Z,53.20
2019-01-25T11:47:38.741Z,50.73
2019-01-25T11:50:17.447Z,51.37
2019-01-25T11:52:51.132Z,48.73
2019-01-25T11:55:24.948Z,57.97
2019-01-25T11:57:58.841Z,54.03
2019-01-25T12:00:32.469Z,45.13
2019-01-25T12:03:06.370Z,51.57
2019-01-25T12:05:40.172Z,56.13
2019-01-25T12:08:13.831Z,59.40
2019-01-25T12:10:47.773Z,53.83
2019-01-25T12:13:21.508Z,48.07
2019-01-25T12:15:56.054Z,60.20
2019-01-25T12:18:29.812Z,56.77
2019-01-25T12:21:03.585Z,52.30
2019-01-25T12:23:37.288Z,52.67
2019-01-25T12:26:10.935Z,55.60
2019-01-25T12:28:45.422Z,62.63
2019-01-25T12:31:19.856Z,54.87
2019-01-25T12:33:54.407Z,52.93
2019-01-25T12:36:29.057Z,64.63
2019-01-25T12:39:02.770Z,57.20
2019-01-25T12:41:36.639Z,57.40
2019-01-25T12:44:10.469Z,53.50
2019-01-25T12:46:44.208Z,48.40
2019-01-25T12:49:18.737Z,52.63
2019-01-25T12:51:52.476Z,46.10
2019-01-25T12:54:27.125Z,53.77
2019-01-25T12:57:00.931Z,50.53
2019-01-25T12:59:34.770Z,59.13
2019-01-25T13:02:08.524Z,59.93
2019-01-25T13:04:43.180Z,49.90
2019-01-25T13:07:16.841Z,53.37
2019-01-25T13:09:51.304Z,46.97
2019-01-25T13:12:25.296Z,47.03
2019-01-25T13:14:58.792Z,51.53
2019-01-25T13:17:33.334Z,49.13
2019-01-25T13:20:08.454Z,47.83
2019-01-25T13:22:42.073Z,45.77
2019-01-25T13:25:16.504Z,55.63
2019-01-25T13:27:50.341Z,52.33
2019-01-25T13:30:26.497Z,52.73
2019-01-25T13:33:00.353Z,37.33
2019-01-25T13:35:34.261Z,53.13
2019-01-25T13:38:08.086Z,52.73
2019-01-25T13:40:41.920Z,55.77
2019-01-25T13:43:17.490Z,44.07
2019-01-25T13:45:51.277Z,45.23
2019-01-25T13:48:25.054Z,53.70
2019-01-25T13:50:59.657Z,43.50
2019-01-25T13:53:33.284Z,52.53
2019-01-25T13:56:11.253Z,49.07
2019-01-25T13:58:44.967Z,43.07
2019-01-25T14:01:18.934Z,44.97
2019-01-25T14:03:52.687Z,52.90
2019-01-25T14:06:26.580Z,46.13
2019-01-25T14:09:00.460Z,47.90
2019-01-25T14:11:35.074Z,49.93
2019-01-25T14:14:09.532Z,43.53
2019-01-25T14:16:43.525Z,45.03
2019-01-25T14:19:17.280Z,45.97
2019-01-25T14:21:51.119Z,43.80
2019-01-25T14:24:25.001Z,45.13
2019-01-25T14:26:58.795Z,53.10
2019-01-25T14:29:33.538Z,47.13
2019-01-25T14:32:08.112Z,47.73
2019-01-25T14:34:40.859Z,42.23
2019-01-25T14:37:14.596Z,41.93
2019-01-25T14:39:48.956Z,37.37
2019-01-25T14:42:22.782Z,35.73
2019-01-25T14:44:57.293Z,39.90
2019-01-25T14:47:31.030Z,34.27
2019-01-25T14:50:05.753Z,38.10
2019-01-25T14:52:39.545Z,31.57
2019-01-25T14:55:14.038Z,33.43
2019-01-25T14:57:47.738Z,38.87
2019-01-25T15:00:21.289Z,36.83
2019-01-25T15:02:54.995Z,39.97
2019-01-25T15:05:28.624Z,38.27
2019-01-25T15:08:02.403Z,35.57
2019-01-25T15:10:37.121Z,41.30
2019-01-25T15:13:10.809Z,34.27
2019-01-25T15:15:44.497Z,37.07
2019-01-25T15:18:18.164Z,36.57
2019-01-25T15:20:52.008Z,32.13
2019-01-25T15:23:25.664Z,36.30
2019-01-25T15:25:59.419Z,36.43
2019-01-25T15:28:33.358Z,37.57
2019-01-25T15:31:07.729Z,35.33
2019-01-25T15:33:42.192Z,31.20
2019-01-25T15:36:15.974Z,36.27
2019-01-25T15:38:49.998Z,29.30
2019-01-25T15:41:23.849Z,31.50
2019-01-25T15:43:57.712Z,28.57
2019-01-25T15:46:31.330Z,29.50
2019-01-25T15:49:05.088Z,29.97
2019-01-25T15:51:39.633Z,30.60
2019-01-25T15:54:13.386Z,23.37
2019-01-25T15:56:47.035Z,31.83
2019-01-25T15:59:21.520Z,24.70
2019-01-25T16:01:55.296Z,25.93
2019-01-25T16:04:34.768Z,20.83
2019-01-25T16:07:03.573Z,19.73
2019-01-25T16:09:37.190Z,25.00
2019-01-25T16:12:11.845Z,22.17
2019-01-25T16:14:45.557Z,23.60
2019-01-25T16:17:20.068Z,16.53
2019-01-25T16:19:54.633Z,22.53
2019-01-25T16:22:29.094Z,20.00
2019-01-25T16:25:02.856Z,20.93
2019-01-25T16:27:36.504Z,25.17
2019-01-25T16:30:15.638Z,22.57
2019-01-25T16:32:49.532Z,23.23
2019-01-25T16:35:24.165Z,23.77
2019-01-25T16:37:58.662Z,23.23
2019-01-25T16:40:32.542Z,20.13
2019-01-25T16:43:06.413Z,23.67
2019-01-25T16:45:41.060Z,26.17
2019-01-25T16:48:14.798Z,19.30
2019-01-25T16:50:48.585Z,20.27
2019-01-25T16:53:22.257Z,17.43
2019-01-25T16:55:56.136Z,25.10
2019-01-25T16:58:29.832Z,18.60
2019-01-25T17:01:03.572Z,18.30
2019-01-25T17:03:37.189Z,18.83
2019-01-25T17:06:10.992Z,17.63
2019-01-25T17:08:45.691Z,19.73
2019-01-25T17:11:19.603Z,23.23
2019-01-25T17:13:54.216Z,20.97
2019-01-25T17:16:28.099Z,21.57
2019-01-25T17:19:02.829Z,22.53
2019-01-25T17:21:36.490Z,18.83
2019-01-25T17:24:10.281Z,25.37
2019-01-25T17:26:43.983Z,24.60
2019-01-25T17:29:17.739Z,24.93
2019-01-25T17:31:51.529Z,24.10
2019-01-25T17:34:25.389Z,24.23
2019-01-25T17:36:59.193Z,33.63
2019-01-25T17:39:33.020Z,33.17
2019-01-25T17:42:06.590Z,34.63
2019-01-25T17:44:41.519Z,37.33
2019-01-25T17:47:15.017Z,31.37
2019-01-25T17:49:48.770Z,39.73
2019-01-25T17:52:22.352Z,33.67
2019-01-25T17:54:56.249Z,31.53
2019-01-25T17:57:30.707Z,32.43
2019-01-25T18:00:10.418Z,36.03
2019-01-25T18:02:44.008Z,32.23
2019-01-25T18:05:17.720Z,35.00
2019-01-25T18:07:51.316Z,28.27
2019-01-25T18:10:25.286Z,35.37
2019-01-25T18:12:59.697Z,31.97
2019-01-25T18:15:33.385Z,33.57
2019-01-25T18:18:07.180Z,28.30
2019-01-25T18:20:40.981Z,26.60
2019-01-25T18:23:14.777Z,34.70
2019-01-25T18:25:48.756Z,37.60
2019-01-25T18:28:23.892Z,35.37
2019-01-25T18:31:02.020Z,42.27
2019-01-25T18:33:34.611Z,39.00
2019-01-25T18:36:08.508Z,33.30
2019-01-25T18:38:42.167Z,42.67
2019-01-25T18:41:15.941Z,31.97
2019-01-25T18:43:49.813Z,37.17
2019-01-25T18:46:23.486Z,36.80
2019-01-25T18:48:57.218Z,36.73
2019-01-25T18:51:30.801Z,34.80
2019-01-25T18:54:04.556Z,41.80
2019-01-25T18:56:39.081Z,40.73
2019-01-25T18:59:12.908Z,37.93
2019-01-25T19:01:46.534Z,43.03
2019-01-25T19:04:20.493Z,39.77
2019-01-25T19:06:55.111Z,31.17
2019-01-25T19:09:29.640Z,34.87
2019-01-25T19:12:04.256Z,36.60
2019-01-25T19:14:37.988Z,34.60
2019-01-25T19:17:11.736Z,31.53
2019-01-25T19:19:45.460Z,34.80
2019-01-25T19:22:19.217Z,39.50
2019-01-25T19:24:52.979Z,33.20
2019-01-25T19:27:26.777Z,31.97
2019-01-25T19:30:00.581Z,31.90
2019-01-25T19:32:34.492Z,30.73
2019-01-25T19:35:08.242Z,37.37
2019-01-25T19:37:42.124Z,35.87
2019-01-25T19:40:16.545Z,31.63
2019-01-25T19:42:50.192Z,35.73
2019-01-25T19:45:23.961Z,31.27
2019-01-25T19:47:57.850Z,31.07
2019-01-25T19:50:31.747Z,40.63
2019-01-25T19:53:05.357Z,35.07
2019-01-25T19:55:39.804Z,38.77
2019-01-25T19:58:13.625Z,30.47
2019-01-25T20:00:48.229Z,30.97
2019-01-25T20:03:21.928Z,34.47
2019-01-25T20:05:55.734Z,37.00
2019-01-25T20:08:29.608Z,35.30
2019-01-25T20:11:03.244Z,37.33
2019-01-25T20:13:36.820Z,33.10
2019-01-25T20:16:11.368Z,34.73
2019-01-25T20:18:45.878Z,27.70
2019-01-25T20:21:19.709Z,31.23
2019-01-25T20:23:53.513Z,24.13
2019-01-25T20:26:27.202Z,38.20
2019-01-25T20:29:00.810Z,28.20
2019-01-25T20:31:34.708Z,28.43
2019-01-25T20:34:09.331Z,29.43
2019-01-25T20:36:43.066Z,57.17
2019-01-25T20:39:17.677Z,33.30
2019-01-25T20:41:52.198Z,37.23
2019-01-25T20:44:26.028Z,37.73
2019-01-25T20:46:59.941Z,28.13
2019-01-25T20:49:33.832Z,33.40
2019-01-25T20:52:07.417Z,31.83
2019-01-25T20:54:41.161Z,32.00
2019-01-25T20:57:15.060Z,29.93
2019-01-25T20:59:48.745Z,29.97
2019-01-25T21:02:22.512Z,26.87
2019-01-25T21:04:56.941Z,30.17
2019-01-25T21:07:30.696Z,28.87
2019-01-25T21:10:04.545Z,31.13
2019-01-25T21:12:38.365Z,30.60
2019-01-25T21:15:12.185Z,39.20
2019-01-25T21:17:46.009Z,34.10
2019-01-25T21:20:23.207Z,26.33
2019-01-25T21:22:56.777Z,35.80
2019-01-25T21:25:30.648Z,24.67
2019-01-25T21:28:04.423Z,29.97
2019-01-25T21:30:38.904Z,25.37
2019-01-25T21:33:12.628Z,37.97
2019-01-25T21:35:46.297Z,22.90
2019-01-25T21:38:20.045Z,24.30
2019-01-25T21:40:54.543Z,25.33
2019-01-25T21:43:28.237Z,32.67
2019-01-25T21:46:01.924Z,28.70
2019-01-25T21:48:36.377Z,30.70
2019-01-25T21:51:10.194Z,34.37
2019-01-25T21:53:44.728Z,31.13
2019-01-25T21:56:19.305Z,26.63
2019-01-25T21:58:53.065Z,30.47
2019-01-25T22:01:26.864Z,28.10
2019-01-25T22:04:00.740Z,29.73
2019-01-25T22:06:34.469Z,29.73
2019-01-25T22:09:08.257Z,33.20
2019-01-25T22:11:42.175Z,27.23
2019-01-25T22:14:15.980Z,30.77
2019-01-25T22:16:49.609Z,23.80
2019-01-25T22:19:23.381Z,27.13
2019-01-25T22:21:57.120Z,32.57
2019-01-25T22:24:30.872Z,37.20
2019-01-25T22:27:04.652Z,27.63
2019-01-25T22:29:38.392Z,24.03
2019-01-25T22:32:12.891Z,30.93
2019-01-25T22:34:45.729Z,31.63
2019-01-25T22:37:19.464Z,27.83
2019-01-25T22:39:53.204Z,15.97
2019-01-25T22:42:26.958Z,25.60
2019-01-25T22:45:01.594Z,25.27
2019-01-25T22:47:35.314Z,30.63
2019-01-25T22:50:09.887Z,30.53
2019-01-25T22:52:43.723Z,31.03
2019-01-25T22:55:17.490Z,17.77
2019-01-25T22:57:51.234Z,28.50
